createdAt,value
2023-03-29T00:01:42.784Z,6.50
2023-03-29T00:04:10.184Z,9.38
2023-03-29T00:06:37.810Z,7.88
2023-03-29T00:09:05.819Z,9.00
2023-03-29T00:11:32.746Z,5.45
2023-03-29T00:13:59.430Z,8.65
2023-03-29T00:16:26.556Z,9.57
2023-03-29T00:18:53.399Z,11.05
2023-03-29T00:21:20.201Z,5.90
2023-03-29T00:23:46.819Z,7.93
2023-03-29T00:26:13.635Z,8.27
2023-03-29T00:28:40.403Z,6.38
2023-03-29T00:31:13.363Z,5.90
2023-03-29T00:33:41.552Z,6.18
2023-03-29T00:36:09.274Z,8.00
2023-03-29T00:38:36.127Z,8.35
2023-03-29T00:41:04.579Z,5.13
2023-03-29T00:43:31.482Z,5.70
2023-03-29T00:45:58.192Z,7.57
2023-03-29T00:48:29.942Z,6.45
2023-03-29T00:51:03.741Z,8.75
2023-03-29T00:53:33.713Z,4.72
2023-03-29T00:56:17.466Z,5.70
2023-03-29T00:58:57.612Z,7.97
2023-03-29T01:01:33.902Z,7.00
2023-03-29T01:04:33.926Z,4.82
2023-03-29T01:07:06.635Z,5.03
2023-03-29T01:09:37.685Z,5.60
2023-03-29T01:12:12.280Z,5.82
2023-03-29T01:14:45.363Z,4.32
2023-03-29T01:17:12.866Z,6.32
2023-03-29T01:19:45.954Z,5.07
2023-03-29T01:22:28.152Z,6.03
2023-03-29T01:25:11.286Z,5.70
2023-03-29T01:27:44.376Z,4.28
2023-03-29T01:30:19.528Z,4.65
2023-03-29T01:32:59.150Z,6.78
2023-03-29T01:35:43.696Z,5.80
2023-03-29T01:38:15.781Z,6.20
2023-03-29T01:40:42.881Z,6.57
2023-03-29T01:43:21.830Z,5.50
2023-03-29T01:45:56.296Z,6.80
2023-03-29T01:48:29.844Z,4.82
2023-03-29T01:51:09.874Z,5.20
2023-03-29T01:53:51.122Z,6.03
2023-03-29T01:56:22.868Z,3.28
2023-03-29T01:58:57.795Z,6.80
2023-03-29T02:01:29.849Z,4.72
2023-03-29T02:04:02.804Z,9.63
2023-03-29T02:06:31.903Z,5.50
2023-03-29T02:08:59.214Z,9.13
2023-03-29T02:11:29.293Z,7.22
2023-03-29T02:13:57.336Z,7.40
2023-03-29T02:16:24.004Z,7.25
2023-03-29T02:18:53.016Z,5.85
2023-03-29T02:21:25.306Z,7.95
2023-03-29T02:23:54.662Z,5.75
2023-03-29T02:26:22.721Z,8.32
2023-03-29T02:28:49.747Z,5.00
2023-03-29T02:31:30.336Z,6.10
2023-03-29T02:34:16.159Z,6.97
2023-03-29T02:36:50.200Z,6.60
2023-03-29T02:39:18.333Z,5.70
2023-03-29T02:41:48.927Z,7.03
2023-03-29T02:44:22.469Z,7.75
2023-03-29T02:47:02.078Z,6.15
2023-03-29T02:49:31.491Z,8.88
2023-03-29T02:52:04.175Z,4.93
2023-03-29T02:54:31.764Z,5.00
2023-03-29T02:57:01.872Z,5.72
2023-03-29T02:59:30.104Z,10.73
2023-03-29T03:01:58.592Z,7.03
2023-03-29T03:04:25.938Z,4.75
2023-03-29T03:06:52.995Z,12.13
2023-03-29T03:09:19.995Z,4.57
2023-03-29T03:11:46.633Z,4.75
2023-03-29T03:14:13.426Z,7.05
2023-03-29T03:16:40.349Z,6.32
2023-03-29T03:19:07.200Z,6.43
2023-03-29T03:21:35.210Z,4.18
2023-03-29T03:24:02.043Z,7.07
2023-03-29T03:26:31.778Z,7.80
2023-03-29T03:28:59.462Z,11.20
2023-03-29T03:31:26.219Z,4.63
2023-03-29T03:33:53.590Z,4.68
2023-03-29T03:36:26.090Z,8.77
2023-03-29T03:38:53.282Z,9.77
2023-03-29T03:41:20.063Z,10.80
2023-03-29T03:43:49.618Z,6.55
2023-03-29T03:46:17.196Z,6.50
2023-03-29T03:48:44.888Z,5.65
2023-03-29T03:51:12.225Z,5.75
2023-03-29T03:53:39.423Z,4.13
2023-03-29T03:56:08.829Z,5.20
2023-03-29T03:58:38.577Z,7.70
2023-03-29T04:01:08.362Z,5.47
2023-03-29T04:03:35.420Z,3.47
2023-03-29T04:06:03.609Z,5.75
2023-03-29T04:08:30.281Z,6.15
2023-03-29T04:10:59.433Z,5.97
2023-03-29T04:13:27.527Z,4.32
2023-03-29T04:15:57.177Z,6.75
2023-03-29T04:18:26.324Z,4.53
2023-03-29T04:20:53.185Z,5.65
2023-03-29T04:23:19.833Z,4.50
2023-03-29T04:25:47.604Z,8.30
2023-03-29T04:28:14.316Z,4.32
2023-03-29T04:30:41.148Z,5.93
2023-03-29T04:33:07.969Z,4.22
2023-03-29T04:35:36.426Z,7.63
2023-03-29T04:38:04.536Z,4.78
2023-03-29T04:40:31.402Z,9.65
2023-03-29T04:42:58.193Z,5.90
2023-03-29T04:45:27.484Z,8.77
2023-03-29T04:47:57.172Z,5.05
2023-03-29T04:50:24.121Z,8.63
2023-03-29T04:52:50.890Z,8.18
2023-03-29T04:55:17.957Z,5.00
2023-03-29T04:57:44.761Z,8.07
2023-03-29T05:00:15.620Z,7.72
2023-03-29T05:02:44.495Z,5.90
2023-03-29T05:05:11.614Z,7.10
2023-03-29T05:07:39.294Z,8.32
2023-03-29T05:10:09.130Z,8.60
2023-03-29T05:12:36.904Z,9.45
2023-03-29T05:15:05.371Z,8.15
2023-03-29T05:17:32.019Z,9.15
2023-03-29T05:20:00.219Z,9.18
2023-03-29T05:22:27.588Z,8.52
2023-03-29T05:24:54.274Z,8.25
2023-03-29T05:27:22.966Z,9.63
2023-03-29T05:29:49.672Z,12.65
2023-03-29T05:32:18.176Z,11.43
2023-03-29T05:34:45.151Z,9.13
2023-03-29T05:37:15.145Z,12.45
2023-03-29T05:39:43.034Z,12.13
2023-03-29T05:42:12.554Z,12.13
2023-03-29T05:44:40.359Z,10.57
2023-03-29T05:47:07.166Z,13.32
2023-03-29T05:49:36.097Z,8.57
2023-03-29T05:52:04.416Z,11.50
2023-03-29T05:54:31.084Z,11.50
2023-03-29T05:56:58.024Z,9.32
2023-03-29T05:59:24.831Z,15.77
2023-03-29T06:01:53.438Z,11.60
2023-03-29T06:04:20.706Z,13.30
2023-03-29T06:06:50.717Z,9.57
2023-03-29T06:09:17.414Z,11.40
2023-03-29T06:11:45.236Z,12.05
2023-03-29T06:14:14.004Z,11.02
2023-03-29T06:16:42.845Z,10.73
2023-03-29T06:19:09.639Z,13.45
2023-03-29T06:21:38.566Z,10.38
2023-03-29T06:24:06.337Z,14.73
2023-03-29T06:26:33.166Z,11.95
2023-03-29T06:29:04.326Z,12.60
2023-03-29T06:31:33.658Z,11.57
2023-03-29T06:34:01.589Z,13.82
2023-03-29T06:36:28.651Z,10.18
2023-03-29T06:38:55.371Z,12.15
2023-03-29T06:41:21.951Z,11.30
2023-03-29T06:43:49.850Z,11.35
2023-03-29T06:46:16.976Z,15.05
2023-03-29T06:48:44.131Z,10.30
2023-03-29T06:51:11.658Z,11.20
2023-03-29T06:53:40.773Z,10.45
2023-03-29T06:56:09.367Z,10.63
2023-03-29T06:58:36.870Z,10.90
2023-03-29T07:01:04.012Z,10.02
2023-03-29T07:03:31.501Z,19.63
2023-03-29T07:06:04.453Z,12.77
2023-03-29T07:08:33.261Z,10.23
2023-03-29T07:11:01.291Z,9.25
2023-03-29T07:13:28.235Z,12.18
2023-03-29T07:15:55.409Z,11.02
2023-03-29T07:18:22.452Z,10.68
2023-03-29T07:20:49.547Z,10.15
2023-03-29T07:23:16.308Z,10.30
2023-03-29T07:25:45.120Z,10.27
2023-03-29T07:28:11.795Z,11.18
2023-03-29T07:30:38.675Z,10.40
2023-03-29T07:33:05.506Z,11.90
2023-03-29T07:35:32.772Z,9.15
2023-03-29T07:37:59.760Z,11.25
2023-03-29T07:40:28.645Z,9.10
2023-03-29T07:42:57.266Z,12.43
2023-03-29T07:45:28.311Z,8.75
2023-03-29T07:47:59.650Z,11.30
2023-03-29T07:50:27.350Z,9.23
2023-03-29T07:52:55.078Z,8.38
2023-03-29T07:55:23.955Z,10.32
2023-03-29T07:57:55.362Z,8.18
2023-03-29T08:00:22.506Z,14.20
2023-03-29T08:02:52.461Z,6.70
2023-03-29T08:05:37.745Z,10.13
2023-03-29T08:08:09.571Z,7.55
2023-03-29T08:10:39.111Z,8.43
2023-03-29T08:13:08.515Z,6.75
2023-03-29T08:15:40.069Z,9.00
2023-03-29T08:18:08.363Z,10.57
2023-03-29T08:20:36.783Z,8.98
2023-03-29T08:23:03.473Z,8.00
2023-03-29T08:25:30.242Z,7.65
2023-03-29T08:27:57.448Z,7.28
2023-03-29T08:30:24.576Z,7.53
2023-03-29T08:32:55.482Z,9.25
2023-03-29T08:35:22.822Z,7.65
2023-03-29T08:37:51.439Z,8.73
2023-03-29T08:40:23.418Z,5.60
2023-03-29T08:43:27.108Z,11.75
2023-03-29T08:46:22.465Z,8.95
2023-03-29T08:48:56.571Z,8.32
2023-03-29T08:51:36.963Z,6.50
2023-03-29T08:54:17.095Z,7.03
2023-03-29T08:56:47.645Z,8.23
2023-03-29T08:59:22.522Z,8.30
2023-03-29T09:01:53.494Z,14.70
2023-03-29T09:04:25.496Z,7.43
2023-03-29T09:06:55.141Z,8.55
2023-03-29T09:09:25.699Z,12.07
2023-03-29T09:12:19.768Z,8.95
2023-03-29T09:15:16.305Z,6.78
2023-03-29T09:18:05.923Z,8.20
2023-03-29T09:20:50.154Z,8.23
2023-03-29T09:23:59.302Z,11.27
2023-03-29T09:26:31.213Z,7.28
2023-03-29T09:29:29.834Z,9.02
2023-03-29T09:31:57.109Z,6.25
2023-03-29T09:34:43.356Z,8.70
2023-03-29T09:37:25.007Z,13.38
2023-03-29T09:39:53.164Z,14.50
2023-03-29T09:42:21.136Z,6.30
2023-03-29T09:44:54.073Z,8.48
2023-03-29T09:47:50.206Z,12.45
2023-03-29T09:50:46.856Z,11.43
2023-03-29T09:53:17.086Z,5.82
2023-03-29T09:55:48.336Z,7.07
2023-03-29T09:58:25.101Z,7.28
2023-03-29T10:00:52.219Z,6.53
2023-03-29T10:03:22.051Z,7.85
2023-03-29T10:05:53.733Z,8.05
2023-03-29T10:08:27.114Z,8.40
2023-03-29T10:10:56.839Z,8.68
2023-03-29T10:13:29.717Z,7.50
2023-03-29T10:16:09.152Z,10.43
2023-03-29T10:18:43.565Z,7.57
2023-03-29T10:21:15.821Z,7.32
2023-03-29T10:23:43.048Z,10.05
2023-03-29T10:26:33.807Z,9.80
2023-03-29T10:29:04.855Z,6.85
2023-03-29T10:31:38.171Z,6.93
2023-03-29T10:34:06.425Z,9.98
2023-03-29T10:36:33.689Z,8.57
2023-03-29T10:39:06.050Z,9.85
2023-03-29T10:41:35.082Z,7.88
2023-03-29T10:44:03.069Z,10.88
2023-03-29T10:46:40.955Z,8.63
2023-03-29T10:49:23.748Z,8.82
2023-03-29T10:51:52.138Z,10.10
2023-03-29T10:54:24.349Z,11.40
2023-03-29T10:57:01.750Z,10.15
2023-03-29T10:59:38.579Z,8.45
2023-03-29T11:02:17.597Z,11.98
2023-03-29T11:05:00.281Z,10.85
2023-03-29T11:07:38.655Z,10.65
2023-03-29T11:10:38.781Z,8.50
2023-03-29T11:13:26.553Z,11.50
2023-03-29T11:16:19.710Z,8.15
2023-03-29T11:19:11.891Z,8.95
2023-03-29T11:21:41.583Z,7.38
2023-03-29T11:24:26.335Z,11.13
2023-03-29T11:27:12.901Z,10.75
2023-03-29T11:30:06.400Z,8.40
2023-03-29T11:32:48.657Z,10.60
2023-03-29T11:35:28.267Z,13.18
2023-03-29T11:38:18.953Z,10.18
2023-03-29T11:41:01.452Z,10.40
2023-03-29T11:43:37.736Z,12.60
2023-03-29T11:46:18.938Z,13.10
2023-03-29T11:49:11.952Z,11.57
2023-03-29T11:51:44.128Z,10.93
2023-03-29T11:54:16.035Z,9.95
2023-03-29T11:56:51.275Z,11.02
2023-03-29T11:59:27.209Z,10.68
2023-03-29T12:02:15.182Z,11.98
2023-03-29T12:04:49.903Z,15.23
2023-03-29T12:07:35.284Z,11.57
2023-03-29T12:10:09.401Z,11.95
2023-03-29T12:12:45.606Z,13.82
2023-03-29T12:15:24.405Z,11.85
2023-03-29T12:18:00.372Z,12.15
2023-03-29T12:20:32.053Z,14.15
2023-03-29T12:22:59.165Z,13.25
2023-03-29T12:25:37.383Z,13.35
2023-03-29T12:28:23.446Z,14.20
2023-03-29T12:31:08.802Z,14.85
2023-03-29T12:33:54.031Z,12.30
2023-03-29T12:36:52.048Z,21.75
2023-03-29T12:39:20.977Z,12.93
2023-03-29T12:41:53.603Z,11.77
2023-03-29T12:44:24.064Z,13.43
2023-03-29T12:47:00.333Z,17.42
2023-03-29T12:49:39.010Z,16.05
2023-03-29T12:52:23.533Z,12.23
2023-03-29T12:54:58.781Z,14.43
2023-03-29T12:57:43.727Z,17.60
2023-03-29T13:00:21.108Z,15.60
2023-03-29T13:03:19.732Z,15.23
2023-03-29T13:05:47.040Z,15.50
2023-03-29T13:08:27.527Z,18.80
2023-03-29T13:10:56.263Z,14.02
2023-03-29T13:13:29.537Z,17.05
2023-03-29T13:15:56.856Z,17.35
2023-03-29T13:18:26.494Z,18.55
2023-03-29T13:21:16.660Z,17.73
2023-03-29T13:24:28.347Z,16.73
2023-03-29T13:27:28.028Z,16.85
2023-03-29T13:30:20.748Z,10.75
2023-03-29T13:33:24.158Z,14.38
2023-03-29T13:36:19.442Z,13.00
2023-03-29T13:38:48.810Z,12.75
2023-03-29T13:41:31.814Z,16.17
2023-03-29T13:43:59.357Z,17.38
2023-03-29T13:46:38.692Z,12.60
2023-03-29T13:49:21.133Z,13.82
2023-03-29T13:51:56.053Z,13.70
2023-03-29T13:54:26.416Z,15.32
2023-03-29T13:57:05.282Z,14.63
2023-03-29T13:59:49.206Z,13.63
2023-03-29T14:02:45.119Z,15.73
2023-03-29T14:05:17.846Z,15.88
2023-03-29T14:07:49.979Z,13.32
2023-03-29T14:10:22.786Z,12.45
2023-03-29T14:12:49.905Z,14.38
2023-03-29T14:15:36.276Z,12.43
2023-03-29T14:18:04.276Z,15.63
2023-03-29T14:20:33.375Z,13.07
2023-03-29T14:23:00.535Z,11.13
2023-03-29T14:25:29.620Z,13.10
2023-03-29T14:28:02.141Z,10.98
2023-03-29T14:30:32.629Z,13.70
2023-03-29T14:32:59.332Z,11.27
2023-03-29T14:35:33.054Z,12.60
2023-03-29T14:38:01.589Z,10.27
2023-03-29T14:40:30.846Z,11.25
2023-03-29T14:43:00.702Z,13.00
2023-03-29T14:45:27.410Z,13.05
2023-03-29T14:47:54.353Z,12.32
2023-03-29T14:50:30.382Z,12.20
2023-03-29T14:52:58.946Z,12.38
2023-03-29T14:55:29.690Z,11.70
2023-03-29T14:57:56.647Z,16.80
2023-03-29T15:00:43.936Z,12.77
2023-03-29T15:03:16.071Z,10.80
2023-03-29T15:05:47.505Z,11.90
2023-03-29T15:08:18.449Z,15.65
2023-03-29T15:10:46.019Z,20.40
2023-03-29T15:13:20.870Z,10.82
2023-03-29T15:15:52.446Z,14.10
2023-03-29T15:18:23.860Z,13.43
2023-03-29T15:20:52.260Z,12.07
2023-03-29T15:23:23.431Z,13.75
2023-03-29T15:25:58.766Z,13.98
2023-03-29T15:28:28.872Z,16.10
2023-03-29T15:31:07.835Z,14.15
2023-03-29T15:33:38.961Z,12.07
2023-03-29T15:36:07.523Z,13.98
2023-03-29T15:38:43.119Z,12.15
2023-03-29T15:41:13.419Z,12.77
2023-03-29T15:43:43.124Z,16.65
2023-03-29T15:46:16.604Z,15.27
2023-03-29T15:48:45.122Z,14.35
2023-03-29T15:51:15.044Z,14.65
2023-03-29T15:53:41.832Z,14.50
2023-03-29T15:56:13.365Z,13.73
2023-03-29T15:58:40.186Z,12.60
2023-03-29T16:01:35.089Z,12.20
2023-03-29T16:04:02.816Z,11.98
2023-03-29T16:06:29.585Z,12.07
2023-03-29T16:08:57.339Z,14.18
2023-03-29T16:11:24.483Z,12.23
2023-03-29T16:13:51.554Z,13.25
2023-03-29T16:16:18.432Z,15.75
2023-03-29T16:18:45.626Z,12.00
2023-03-29T16:21:14.749Z,15.93
2023-03-29T16:23:43.040Z,17.92
2023-03-29T16:26:12.673Z,18.73
2023-03-29T16:28:40.368Z,19.02
2023-03-29T16:31:09.672Z,13.23
2023-03-29T16:33:36.922Z,16.45
2023-03-29T16:36:04.637Z,17.45
2023-03-29T16:38:31.714Z,17.85
2023-03-29T16:40:58.636Z,15.60
2023-03-29T16:43:26.142Z,11.90
2023-03-29T16:45:53.560Z,13.88
2023-03-29T16:48:20.327Z,14.98
2023-03-29T16:50:50.085Z,16.75
2023-03-29T16:53:21.890Z,14.30
2023-03-29T16:55:50.322Z,14.23
2023-03-29T16:58:16.919Z,22.25
2023-03-29T17:00:46.411Z,14.15
2023-03-29T17:03:17.120Z,13.68
2023-03-29T17:05:48.488Z,15.13
2023-03-29T17:08:16.474Z,14.70
2023-03-29T17:10:43.799Z,13.32
2023-03-29T17:13:11.038Z,12.75
2023-03-29T17:15:39.742Z,13.95
2023-03-29T17:18:07.162Z,15.82
2023-03-29T17:20:36.325Z,15.00
2023-03-29T17:23:03.089Z,15.02
2023-03-29T17:25:31.404Z,16.27
2023-03-29T17:28:03.029Z,12.75
2023-03-29T17:30:29.804Z,15.35
2023-03-29T17:32:57.117Z,14.25
2023-03-29T17:35:23.863Z,16.60
2023-03-29T17:37:50.749Z,16.42
2023-03-29T17:40:18.453Z,15.13
2023-03-29T17:42:47.848Z,17.92
2023-03-29T17:45:15.687Z,12.98
2023-03-29T17:47:42.590Z,16.42
2023-03-29T17:50:11.678Z,17.63
2023-03-29T17:52:41.768Z,18.20
2023-03-29T17:55:16.365Z,18.60
2023-03-29T17:57:45.754Z,18.45
2023-03-29T18:00:15.719Z,15.77
2023-03-29T18:02:43.107Z,21.30
2023-03-29T18:05:12.952Z,21.00
2023-03-29T18:07:39.803Z,19.63
2023-03-29T18:10:07.606Z,18.65
2023-03-29T18:12:34.299Z,15.23
2023-03-29T18:15:04.143Z,18.42
2023-03-29T18:17:31.378Z,17.20
2023-03-29T18:19:58.137Z,16.50
2023-03-29T18:22:26.940Z,18.35
2023-03-29T18:24:54.833Z,17.92
2023-03-29T18:27:21.647Z,19.85
2023-03-29T18:29:48.447Z,18.27
2023-03-29T18:32:15.251Z,21.00
2023-03-29T18:34:42.045Z,15.57
2023-03-29T18:37:14.497Z,16.58
2023-03-29T18:39:44.284Z,16.27
2023-03-29T18:42:12.255Z,17.58
2023-03-29T18:44:42.799Z,19.13
2023-03-29T18:47:09.584Z,18.83
2023-03-29T18:49:36.924Z,20.42
2023-03-29T18:52:07.680Z,15.23
2023-03-29T18:54:34.363Z,18.73
2023-03-29T18:57:01.322Z,16.60
2023-03-29T18:59:28.289Z,19.25
2023-03-29T19:01:55.174Z,17.17
2023-03-29T19:04:21.957Z,16.77
2023-03-29T19:06:49.434Z,20.90
2023-03-29T19:09:16.430Z,17.05
2023-03-29T19:11:43.764Z,16.33
2023-03-29T19:14:10.462Z,16.42
2023-03-29T19:16:37.586Z,17.52
2023-03-29T19:19:07.553Z,20.17
2023-03-29T19:21:34.246Z,13.38
2023-03-29T19:24:03.938Z,19.52
2023-03-29T19:26:35.218Z,16.17
2023-03-29T19:29:01.848Z,15.82
2023-03-29T19:31:28.834Z,16.38
2023-03-29T19:33:57.593Z,17.23
2023-03-29T19:36:24.331Z,18.90
2023-03-29T19:38:54.060Z,20.02
2023-03-29T19:41:20.878Z,17.50
2023-03-29T19:43:47.452Z,18.45
2023-03-29T19:46:15.759Z,17.45
2023-03-29T19:48:44.882Z,20.30
2023-03-29T19:51:12.142Z,17.83
2023-03-29T19:53:39.190Z,16.90
2023-03-29T19:56:09.450Z,17.00
2023-03-29T19:58:37.479Z,17.63
2023-03-29T20:01:04.296Z,18.88
2023-03-29T20:03:33.919Z,18.42
2023-03-29T20:06:01.553Z,22.75
2023-03-29T20:08:28.376Z,20.02
2023-03-29T20:11:10.372Z,17.48
2023-03-29T20:13:44.706Z,16.75
2023-03-29T20:16:14.463Z,19.02
2023-03-29T20:18:41.241Z,21.20
2023-03-29T20:21:11.175Z,17.92
2023-03-29T20:23:38.224Z,20.73
2023-03-29T20:26:07.266Z,20.08
2023-03-29T20:28:34.914Z,16.58
2023-03-29T20:31:07.063Z,19.42
2023-03-29T20:33:33.940Z,17.33
2023-03-29T20:36:00.844Z,21.60
2023-03-29T20:38:27.795Z,19.67
2023-03-29T20:40:55.319Z,20.50
2023-03-29T20:43:22.062Z,20.67
2023-03-29T20:45:53.549Z,18.90
2023-03-29T20:48:24.885Z,21.58
2023-03-29T20:50:51.903Z,23.30
2023-03-29T20:53:20.281Z,21.48
2023-03-29T20:55:47.873Z,17.90
2023-03-29T21:00:58.954Z,19.35
2023-03-29T21:03:26.175Z,18.30
2023-03-29T21:05:58.300Z,20.98
2023-03-29T21:08:28.782Z,22.02
2023-03-29T21:10:56.548Z,22.23
2023-03-29T21:13:23.471Z,19.50
2023-03-29T21:15:51.350Z,25.17
2023-03-29T21:18:18.283Z,26.00
2023-03-29T21:23:26.219Z,23.88
2023-03-29T21:25:52.920Z,24.98
2023-03-29T21:28:19.772Z,24.80
2023-03-29T21:30:46.451Z,21.50
2023-03-29T21:33:13.114Z,22.80
2023-03-29T21:35:39.934Z,25.42
2023-03-29T21:38:06.626Z,25.77
2023-03-29T21:40:36.838Z,23.30
2023-03-29T21:43:03.546Z,25.20
2023-03-29T21:45:30.854Z,25.75
2023-03-29T21:47:57.678Z,20.80
2023-03-29T21:50:24.739Z,26.38
2023-03-29T21:52:51.342Z,28.38
2023-03-29T21:55:18.501Z,21.17
2023-03-29T21:57:45.995Z,23.70
2023-03-29T22:00:15.406Z,22.90
2023-03-29T22:02:42.662Z,28.35
2023-03-29T22:05:11.678Z,25.75
2023-03-29T22:07:41.089Z,26.27
2023-03-29T22:10:12.469Z,26.50
2023-03-29T22:12:39.475Z,25.17
2023-03-29T22:15:07.224Z,25.85
2023-03-29T22:17:35.883Z,26.33
2023-03-29T22:20:04.440Z,28.45
2023-03-29T22:22:31.157Z,25.77
2023-03-29T22:24:57.833Z,26.00
2023-03-29T22:27:24.685Z,27.10
2023-03-29T22:29:51.520Z,24.77
2023-03-29T22:32:18.273Z,27.67
2023-03-29T22:34:45.068Z,25.65
2023-03-29T22:37:11.645Z,26.15
2023-03-29T22:39:38.265Z,29.17
2023-03-29T22:42:05.138Z,27.42
2023-03-29T22:44:34.089Z,26.00
2023-03-29T22:47:02.586Z,29.70
2023-03-29T22:49:29.272Z,27.90
2023-03-29T22:51:56.090Z,25.42
2023-03-29T22:54:22.781Z,27.58
2023-03-29T22:56:49.636Z,27.48
2023-03-29T22:59:16.427Z,32.97
2023-03-29T23:01:43.084Z,26.25
2023-03-29T23:04:10.033Z,28.17
2023-03-29T23:06:36.930Z,28.80
2023-03-29T23:09:04.016Z,29.80
2023-03-29T23:11:30.714Z,28.35
2023-03-29T23:13:57.742Z,30.10
2023-03-29T23:16:24.529Z,24.88
2023-03-29T23:18:51.491Z,24.08
2023-03-29T23:21:18.146Z,29.58
2023-03-29T23:23:44.764Z,26.98
2023-03-29T23:26:11.775Z,26.95
2023-03-29T23:28:38.407Z,29.08
2023-03-29T23:31:10.747Z,25.73
2023-03-29T23:33:40.442Z,22.08
2023-03-29T23:36:10.870Z,26.80
2023-03-29T23:38:39.925Z,23.83
2023-03-29T23:41:08.515Z,29.40
2023-03-29T23:43:37.502Z,22.83
2023-03-29T23:46:07.143Z,26.45
2023-03-29T23:48:34.216Z,27.77
2023-03-29T23:51:02.369Z,23.88
2023-03-29T23:53:30.720Z,26.85
2023-03-29T23:56:00.296Z,26.20
2023-03-29T23:58:28.564Z,27.65
